sensor_id;sensor_type;location;lat;lon;timestamp;temperature;humidity
53045;DHT22;38930;52.766;6.884;2023-05-19T00:00:52;8.30;99.90
53045;DHT22;38930;52.766;6.884;2023-05-19T00:03:18;8.30;99.90
53045;DHT22;38930;52.766;6.884;2023-05-19T00:05:47;8.30;99.90
53045;DHT22;38930;52.766;6.884;2023-05-19T00:08:15;8.30;99.90
53045;DHT22;38930;52.766;6.884;2023-05-19T00:10:42;8.20;99.90
53045;DHT22;38930;52.766;6.884;2023-05-19T00:13:07;8.20;99.90
53045;DHT22;38930;52.766;6.884;2023-05-19T00:15:33;8.10;99.90
53045;DHT22;38930;52.766;6.884;2023-05-19T00:17:59;8.20;99.90
53045;DHT22;38930;52.766;6.884;2023-05-19T00:20:25;8.20;99.90
53045;DHT22;38930;52.766;6.884;2023-05-19T00:22:51;8.20;99.90
53045;DHT22;38930;52.766;6.884;2023-05-19T00:25:16;8.10;99.90
53045;DHT22;38930;52.766;6.884;2023-05-19T00:27:42;8.50;99.90
53045;DHT22;38930;52.766;6.884;2023-05-19T00:30:08;8.10;99.90
53045;DHT22;38930;52.766;6.884;2023-05-19T00:32:33;8.10;99.90
53045;DHT22;38930;52.766;6.884;2023-05-19T00:34:59;8.00;99.90
53045;DHT22;38930;52.766;6.884;2023-05-19T00:37:25;8.00;99.90
53045;DHT22;38930;52.766;6.884;2023-05-19T00:39:51;8.00;99.90
53045;DHT22;38930;52.766;6.884;2023-05-19T00:42:16;8.00;99.90
53045;DHT22;38930;52.766;6.884;2023-05-19T00:44:42;8.00;99.90
53045;DHT22;38930;52.766;6.884;2023-05-19T00:47:11;8.00;99.90
53045;DHT22;38930;52.766;6.884;2023-05-19T00:49:36;7.90;99.90
53045;DHT22;38930;52.766;6.884;2023-05-19T00:52:04;7.90;99.90
53045;DHT22;38930;52.766;6.884;2023-05-19T00:54:30;7.90;99.90
53045;DHT22;38930;52.766;6.884;2023-05-19T00:56:58;7.90;99.90
53045;DHT22;38930;52.766;6.884;2023-05-19T00:59:23;7.90;99.90
53045;DHT22;38930;52.766;6.884;2023-05-19T01:01:49;7.90;99.90
53045;DHT22;38930;52.766;6.884;2023-05-19T01:04:18;7.80;99.90
53045;DHT22;38930;52.766;6.884;2023-05-19T01:06:47;8.60;99.90
53045;DHT22;38930;52.766;6.884;2023-05-19T01:09:15;7.80;99.90
53045;DHT22;38930;52.766;6.884;2023-05-19T01:11:41;7.80;99.90
53045;DHT22;38930;52.766;6.884;2023-05-19T01:14:07;7.80;99.90
53045;DHT22;38930;52.766;6.884;2023-05-19T01:16:39;8.40;99.90
53045;DHT22;38930;52.766;6.884;2023-05-19T01:22:37;7.80;99.90
53045;DHT22;38930;52.766;6.884;2023-05-19T01:30:44;7.70;99.90
53045;DHT22;38930;52.766;6.884;2023-05-19T01:33:14;7.70;99.90
53045;DHT22;38930;52.766;6.884;2023-05-19T01:35:40;7.80;99.90
53045;DHT22;38930;52.766;6.884;2023-05-19T01:38:08;8.20;99.90
53045;DHT22;38930;52.766;6.884;2023-05-19T01:40:36;7.60;99.90
53045;DHT22;38930;52.766;6.884;2023-05-19T01:43:03;7.60;99.90
53045;DHT22;38930;52.766;6.884;2023-05-19T01:45:31;7.60;99.90
53045;DHT22;38930;52.766;6.884;2023-05-19T01:47:59;7.80;99.90
53045;DHT22;38930;52.766;6.884;2023-05-19T01:50:25;7.50;99.90
53045;DHT22;38930;52.766;6.884;2023-05-19T01:52:51;7.60;99.90
53045;DHT22;38930;52.766;6.884;2023-05-19T01:55:18;7.50;99.90
53045;DHT22;38930;52.766;6.884;2023-05-19T01:58:08;7.50;99.90
53045;DHT22;38930;52.766;6.884;2023-05-19T02:11:36;7.40;99.90
53045;DHT22;38930;52.766;6.884;2023-05-19T02:14:10;7.40;99.90
53045;DHT22;38930;52.766;6.884;2023-05-19T02:16:38;7.80;99.90
53045;DHT22;38930;52.766;6.884;2023-05-19T02:19:04;7.30;99.90
53045;DHT22;38930;52.766;6.884;2023-05-19T02:21:29;7.30;99.90
53045;DHT22;38930;52.766;6.884;2023-05-19T02:23:55;7.30;99.90
53045;DHT22;38930;52.766;6.884;2023-05-19T02:26:21;7.20;99.90
53045;DHT22;38930;52.766;6.884;2023-05-19T02:28:47;7.20;99.90
53045;DHT22;38930;52.766;6.884;2023-05-19T02:31:12;7.20;99.90
53045;DHT22;38930;52.766;6.884;2023-05-19T02:33:38;7.20;99.90
53045;DHT22;38930;52.766;6.884;2023-05-19T02:36:04;7.20;99.90
53045;DHT22;38930;52.766;6.884;2023-05-19T02:38:30;7.10;99.90
53045;DHT22;38930;52.766;6.884;2023-05-19T02:40:55;7.10;99.90
53045;DHT22;38930;52.766;6.884;2023-05-19T02:43:21;7.10;99.90
53045;DHT22;38930;52.766;6.884;2023-05-19T02:45:47;7.10;99.90
53045;DHT22;38930;52.766;6.884;2023-05-19T02:48:12;7.10;99.90
53045;DHT22;38930;52.766;6.884;2023-05-19T02:50:38;7.10;99.90
53045;DHT22;38930;52.766;6.884;2023-05-19T02:53:04;7.10;99.90
53045;DHT22;38930;52.766;6.884;2023-05-19T02:55:29;7.00;99.90
53045;DHT22;38930;52.766;6.884;2023-05-19T02:57:55;7.00;99.90
53045;DHT22;38930;52.766;6.884;2023-05-19T03:00:20;7.00;99.90
53045;DHT22;38930;52.766;6.884;2023-05-19T03:02:46;7.00;99.90
53045;DHT22;38930;52.766;6.884;2023-05-19T03:05:12;7.00;99.90
53045;DHT22;38930;52.766;6.884;2023-05-19T03:07:38;6.90;99.90
53045;DHT22;38930;52.766;6.884;2023-05-19T03:10:04;6.90;99.90
53045;DHT22;38930;52.766;6.884;2023-05-19T03:12:31;6.90;99.90
53045;DHT22;38930;52.766;6.884;2023-05-19T03:14:58;6.90;99.90
53045;DHT22;38930;52.766;6.884;2023-05-19T03:17:24;6.90;99.90
53045;DHT22;38930;52.766;6.884;2023-05-19T03:19:50;6.80;99.90
53045;DHT22;38930;52.766;6.884;2023-05-19T03:22:16;6.90;99.90
53045;DHT22;38930;52.766;6.884;2023-05-19T03:24:43;6.90;99.90
53045;DHT22;38930;52.766;6.884;2023-05-19T03:27:08;6.80;99.90
53045;DHT22;38930;52.766;6.884;2023-05-19T03:29:34;7.60;99.90
53045;DHT22;38930;52.766;6.884;2023-05-19T03:32:00;7.00;99.90
53045;DHT22;38930;52.766;6.884;2023-05-19T03:34:26;6.80;99.90
53045;DHT22;38930;52.766;6.884;2023-05-19T03:36:51;7.00;99.90
53045;DHT22;38930;52.766;6.884;2023-05-19T03:39:17;6.80;99.90
53045;DHT22;38930;52.766;6.884;2023-05-19T03:41:43;6.80;99.90
53045;DHT22;38930;52.766;6.884;2023-05-19T03:44:08;6.80;99.90
53045;DHT22;38930;52.766;6.884;2023-05-19T03:46:34;6.80;99.90
53045;DHT22;38930;52.766;6.884;2023-05-19T03:48:59;6.80;99.90
53045;DHT22;38930;52.766;6.884;2023-05-19T03:51:25;6.80;99.90
53045;DHT22;38930;52.766;6.884;2023-05-19T03:53:52;6.80;99.90
53045;DHT22;38930;52.766;6.884;2023-05-19T03:56:18;6.80;99.90
53045;DHT22;38930;52.766;6.884;2023-05-19T03:58:47;6.80;99.90
53045;DHT22;38930;52.766;6.884;2023-05-19T04:01:14;6.80;99.90
53045;DHT22;38930;52.766;6.884;2023-05-19T04:03:39;6.80;99.90
53045;DHT22;38930;52.766;6.884;2023-05-19T04:06:06;6.80;99.90
53045;DHT22;38930;52.766;6.884;2023-05-19T04:08:32;6.90;99.90
53045;DHT22;38930;52.766;6.884;2023-05-19T04:10:57;6.90;99.90
53045;DHT22;38930;52.766;6.884;2023-05-19T04:13:23;6.90;99.90
53045;DHT22;38930;52.766;6.884;2023-05-19T04:15:49;6.90;99.90
53045;DHT22;38930;52.766;6.884;2023-05-19T04:18:14;7.10;99.90
53045;DHT22;38930;52.766;6.884;2023-05-19T04:20:40;7.00;99.90
53045;DHT22;38930;52.766;6.884;2023-05-19T04:23:05;7.70;99.90
53045;DHT22;38930;52.766;6.884;2023-05-19T04:25:31;7.00;99.90
53045;DHT22;38930;52.766;6.884;2023-05-19T04:27:57;7.00;99.90
53045;DHT22;38930;52.766;6.884;2023-05-19T04:30:25;7.10;99.90
53045;DHT22;38930;52.766;6.884;2023-05-19T04:32:50;7.10;99.90
53045;DHT22;38930;52.766;6.884;2023-05-19T04:35:16;7.20;99.90
53045;DHT22;38930;52.766;6.884;2023-05-19T04:37:43;7.20;99.90
53045;DHT22;38930;52.766;6.884;2023-05-19T04:40:13;7.20;99.90
53045;DHT22;38930;52.766;6.884;2023-05-19T04:42:40;7.30;99.90
53045;DHT22;38930;52.766;6.884;2023-05-19T04:45:07;7.40;99.90
53045;DHT22;38930;52.766;6.884;2023-05-19T04:47:34;7.40;99.90
53045;DHT22;38930;52.766;6.884;2023-05-19T04:50:03;7.50;99.90
53045;DHT22;38930;52.766;6.884;2023-05-19T04:52:29;7.60;99.90
53045;DHT22;38930;52.766;6.884;2023-05-19T04:54:55;7.70;99.90
53045;DHT22;38930;52.766;6.884;2023-05-19T04:57:20;7.70;99.90
53045;DHT22;38930;52.766;6.884;2023-05-19T04:59:46;8.20;99.90
53045;DHT22;38930;52.766;6.884;2023-05-19T05:02:12;7.80;99.90
53045;DHT22;38930;52.766;6.884;2023-05-19T05:04:37;7.90;99.90
53045;DHT22;38930;52.766;6.884;2023-05-19T05:07:07;8.00;99.90
53045;DHT22;38930;52.766;6.884;2023-05-19T05:09:32;8.60;99.90
53045;DHT22;38930;52.766;6.884;2023-05-19T05:11:58;8.10;99.90
53045;DHT22;38930;52.766;6.884;2023-05-19T05:14:24;8.20;99.90
53045;DHT22;38930;52.766;6.884;2023-05-19T05:16:50;8.30;99.90
53045;DHT22;38930;52.766;6.884;2023-05-19T05:19:16;8.40;99.90
53045;DHT22;38930;52.766;6.884;2023-05-19T05:21:42;8.50;99.90
53045;DHT22;38930;52.766;6.884;2023-05-19T05:24:08;8.60;99.90
53045;DHT22;38930;52.766;6.884;2023-05-19T05:26:34;8.70;99.90
53045;DHT22;38930;52.766;6.884;2023-05-19T05:29:01;8.70;99.90
53045;DHT22;38930;52.766;6.884;2023-05-19T05:31:26;8.90;99.90
53045;DHT22;38930;52.766;6.884;2023-05-19T05:33:52;9.70;99.90
53045;DHT22;38930;52.766;6.884;2023-05-19T05:36:18;9.00;99.90
53045;DHT22;38930;52.766;6.884;2023-05-19T05:38:43;9.20;99.90
53045;DHT22;38930;52.766;6.884;2023-05-19T05:41:09;9.40;99.90
53045;DHT22;38930;52.766;6.884;2023-05-19T05:43:35;9.60;99.90
53045;DHT22;38930;52.766;6.884;2023-05-19T05:46:00;9.80;99.90
53045;DHT22;38930;52.766;6.884;2023-05-19T05:48:26;10.00;99.90
53045;DHT22;38930;52.766;6.884;2023-05-19T05:50:52;10.30;99.90
53045;DHT22;38930;52.766;6.884;2023-05-19T05:53:20;10.50;99.90
53045;DHT22;38930;52.766;6.884;2023-05-19T05:55:46;10.60;99.90
53045;DHT22;38930;52.766;6.884;2023-05-19T05:58:12;10.70;99.90
53045;DHT22;38930;52.766;6.884;2023-05-19T06:00:39;10.80;99.90
53045;DHT22;38930;52.766;6.884;2023-05-19T06:03:08;11.00;99.90
53045;DHT22;38930;52.766;6.884;2023-05-19T06:05:34;11.70;99.90
53045;DHT22;38930;52.766;6.884;2023-05-19T06:08:00;11.20;99.90
53045;DHT22;38930;52.766;6.884;2023-05-19T06:10:27;11.30;99.90
53045;DHT22;38930;52.766;6.884;2023-05-19T06:12:53;11.50;99.90
53045;DHT22;38930;52.766;6.884;2023-05-19T06:15:19;11.80;99.90
53045;DHT22;38930;52.766;6.884;2023-05-19T06:17:45;11.80;99.90
53045;DHT22;38930;52.766;6.884;2023-05-19T06:20:11;12.00;99.90
53045;DHT22;38930;52.766;6.884;2023-05-19T06:22:37;12.10;99.90
53045;DHT22;38930;52.766;6.884;2023-05-19T06:25:04;12.30;99.90
53045;DHT22;38930;52.766;6.884;2023-05-19T06:27:29;12.30;99.90
53045;DHT22;38930;52.766;6.884;2023-05-19T06:29:55;12.50;99.90
53045;DHT22;38930;52.766;6.884;2023-05-19T06:32:21;12.60;99.90
53045;DHT22;38930;52.766;6.884;2023-05-19T06:34:46;12.80;99.90
53045;DHT22;38930;52.766;6.884;2023-05-19T06:37:20;12.90;99.90
53045;DHT22;38930;52.766;6.884;2023-05-19T06:39:47;12.90;99.90
53045;DHT22;38930;52.766;6.884;2023-05-19T06:42:13;13.10;99.90
53045;DHT22;38930;52.766;6.884;2023-05-19T06:44:39;13.20;99.90
53045;DHT22;38930;52.766;6.884;2023-05-19T06:47:04;13.20;99.90
53045;DHT22;38930;52.766;6.884;2023-05-19T06:49:30;13.40;99.90
53045;DHT22;38930;52.766;6.884;2023-05-19T06:51:56;13.40;99.90
53045;DHT22;38930;52.766;6.884;2023-05-19T06:54:22;13.50;99.90
53045;DHT22;38930;52.766;6.884;2023-05-19T06:56:47;13.50;99.90
53045;DHT22;38930;52.766;6.884;2023-05-19T06:59:13;13.50;99.90
53045;DHT22;38930;52.766;6.884;2023-05-19T07:01:38;13.60;99.90
53045;DHT22;38930;52.766;6.884;2023-05-19T07:04:04;13.60;99.90
53045;DHT22;38930;52.766;6.884;2023-05-19T07:06:30;13.80;99.90
53045;DHT22;38930;52.766;6.884;2023-05-19T07:08:55;13.90;99.90
53045;DHT22;38930;52.766;6.884;2023-05-19T07:11:21;14.00;99.90
53045;DHT22;38930;52.766;6.884;2023-05-19T07:13:47;14.00;99.90
53045;DHT22;38930;52.766;6.884;2023-05-19T07:16:12;14.20;99.90
53045;DHT22;38930;52.766;6.884;2023-05-19T07:18:38;14.30;99.90
53045;DHT22;38930;52.766;6.884;2023-05-19T07:21:03;14.20;99.90
53045;DHT22;38930;52.766;6.884;2023-05-19T07:23:29;14.30;99.90
53045;DHT22;38930;52.766;6.884;2023-05-19T07:25:55;14.70;99.90
53045;DHT22;38930;52.766;6.884;2023-05-19T07:28:20;14.60;99.90
53045;DHT22;38930;52.766;6.884;2023-05-19T07:30:46;14.80;99.90
53045;DHT22;38930;52.766;6.884;2023-05-19T07:33:12;14.90;99.90
53045;DHT22;38930;52.766;6.884;2023-05-19T07:35:38;15.00;99.90
53045;DHT22;38930;52.766;6.884;2023-05-19T07:38:04;15.10;99.90
53045;DHT22;38930;52.766;6.884;2023-05-19T07:40:31;15.10;99.90
53045;DHT22;38930;52.766;6.884;2023-05-19T07:42:57;15.20;99.90
53045;DHT22;38930;52.766;6.884;2023-05-19T07:45:22;15.40;99.90
53045;DHT22;38930;52.766;6.884;2023-05-19T07:47:48;15.40;99.90
53045;DHT22;38930;52.766;6.884;2023-05-19T07:50:14;15.40;99.90
53045;DHT22;38930;52.766;6.884;2023-05-19T07:52:40;15.50;99.90
53045;DHT22;38930;52.766;6.884;2023-05-19T07:55:06;15.60;99.90
53045;DHT22;38930;52.766;6.884;2023-05-19T07:57:31;15.60;99.90
53045;DHT22;38930;52.766;6.884;2023-05-19T07:59:57;15.70;99.90
53045;DHT22;38930;52.766;6.884;2023-05-19T08:02:22;15.70;99.90
53045;DHT22;38930;52.766;6.884;2023-05-19T08:04:48;15.80;99.90
53045;DHT22;38930;52.766;6.884;2023-05-19T08:07:14;15.90;99.90
53045;DHT22;38930;52.766;6.884;2023-05-19T08:09:39;16.10;99.90
53045;DHT22;38930;52.766;6.884;2023-05-19T08:12:05;16.20;99.90
53045;DHT22;38930;52.766;6.884;2023-05-19T08:14:30;16.30;99.90
53045;DHT22;38930;52.766;6.884;2023-05-19T08:16:57;16.40;99.90
53045;DHT22;38930;52.766;6.884;2023-05-19T08:19:23;16.50;99.90
53045;DHT22;38930;52.766;6.884;2023-05-19T08:21:49;16.40;99.90
53045;DHT22;38930;52.766;6.884;2023-05-19T08:24:14;16.50;99.90
53045;DHT22;38930;52.766;6.884;2023-05-19T08:26:40;16.50;99.90
53045;DHT22;38930;52.766;6.884;2023-05-19T08:29:06;16.50;99.90
53045;DHT22;38930;52.766;6.884;2023-05-19T08:31:31;16.60;99.90
53045;DHT22;38930;52.766;6.884;2023-05-19T08:33:57;16.80;99.90
53045;DHT22;38930;52.766;6.884;2023-05-19T08:36:23;16.90;99.90
53045;DHT22;38930;52.766;6.884;2023-05-19T08:38:49;17.00;99.90
53045;DHT22;38930;52.766;6.884;2023-05-19T08:41:14;17.10;99.90
53045;DHT22;38930;52.766;6.884;2023-05-19T08:43:41;17.20;99.90
53045;DHT22;38930;52.766;6.884;2023-05-19T08:46:06;17.30;99.90
53045;DHT22;38930;52.766;6.884;2023-05-19T08:48:38;17.30;99.90
53045;DHT22;38930;52.766;6.884;2023-05-19T08:53:57;17.60;99.90
53045;DHT22;38930;52.766;6.884;2023-05-19T08:56:24;17.60;99.90
53045;DHT22;38930;52.766;6.884;2023-05-19T08:58:51;17.50;99.90
53045;DHT22;38930;52.766;6.884;2023-05-19T09:01:18;17.50;99.90
53045;DHT22;38930;52.766;6.884;2023-05-19T09:03:45;17.50;99.90
53045;DHT22;38930;52.766;6.884;2023-05-19T09:06:11;17.50;99.90
53045;DHT22;38930;52.766;6.884;2023-05-19T09:08:38;17.60;99.90
53045;DHT22;38930;52.766;6.884;2023-05-19T09:11:04;17.60;99.90
53045;DHT22;38930;52.766;6.884;2023-05-19T09:13:30;17.70;99.80
53045;DHT22;38930;52.766;6.884;2023-05-19T09:15:56;17.60;98.70
53045;DHT22;38930;52.766;6.884;2023-05-19T09:18:24;17.60;99.50
53045;DHT22;38930;52.766;6.884;2023-05-19T09:20:57;17.70;99.90
53045;DHT22;38930;52.766;6.884;2023-05-19T09:23:29;17.70;99.90
53045;DHT22;38930;52.766;6.884;2023-05-19T09:25:56;17.90;99.90
53045;DHT22;38930;52.766;6.884;2023-05-19T09:28:32;18.00;98.20
53045;DHT22;38930;52.766;6.884;2023-05-19T09:31:02;18.00;99.10
53045;DHT22;38930;52.766;6.884;2023-05-19T09:33:28;18.20;99.40
53045;DHT22;38930;52.766;6.884;2023-05-19T09:35:54;18.30;98.80
53045;DHT22;38930;52.766;6.884;2023-05-19T09:38:22;18.20;98.30
53045;DHT22;38930;52.766;6.884;2023-05-19T09:40:48;18.30;98.70
53045;DHT22;38930;52.766;6.884;2023-05-19T09:43:14;18.30;99.00
53045;DHT22;38930;52.766;6.884;2023-05-19T09:45:40;18.40;98.20
53045;DHT22;38930;52.766;6.884;2023-05-19T09:48:06;18.50;98.20
53045;DHT22;38930;52.766;6.884;2023-05-19T09:50:32;18.70;98.80
53045;DHT22;38930;52.766;6.884;2023-05-19T09:52:58;18.90;99.00
53045;DHT22;38930;52.766;6.884;2023-05-19T09:55:26;19.00;98.70
53045;DHT22;38930;52.766;6.884;2023-05-19T09:57:54;19.10;98.60
53045;DHT22;38930;52.766;6.884;2023-05-19T10:00:25;19.20;98.10
53045;DHT22;38930;52.766;6.884;2023-05-19T10:02:51;19.30;97.30
53045;DHT22;38930;52.766;6.884;2023-05-19T10:05:18;19.20;97.10
53045;DHT22;38930;52.766;6.884;2023-05-19T10:07:51;19.20;96.60
53045;DHT22;38930;52.766;6.884;2023-05-19T10:10:17;19.20;95.70
53045;DHT22;38930;52.766;6.884;2023-05-19T10:12:47;19.20;97.30
53045;DHT22;38930;52.766;6.884;2023-05-19T10:15:15;19.30;96.50
53045;DHT22;38930;52.766;6.884;2023-05-19T10:17:42;19.40;96.50
53045;DHT22;38930;52.766;6.884;2023-05-19T10:20:15;19.40;96.10
53045;DHT22;38930;52.766;6.884;2023-05-19T10:22:44;19.40;96.40
53045;DHT22;38930;52.766;6.884;2023-05-19T10:25:11;19.40;95.40
53045;DHT22;38930;52.766;6.884;2023-05-19T10:27:50;19.40;95.40
53045;DHT22;38930;52.766;6.884;2023-05-19T10:30:17;19.50;95.10
53045;DHT22;38930;52.766;6.884;2023-05-19T10:32:45;19.60;94.60
53045;DHT22;38930;52.766;6.884;2023-05-19T10:38:09;19.90;94.60
53045;DHT22;38930;52.766;6.884;2023-05-19T10:40:53;19.80;94.40
53045;DHT22;38930;52.766;6.884;2023-05-19T10:46:09;20.10;93.70
53045;DHT22;38930;52.766;6.884;2023-05-19T10:48:35;20.20;92.90
53045;DHT22;38930;52.766;6.884;2023-05-19T10:51:00;20.30;94.10
53045;DHT22;38930;52.766;6.884;2023-05-19T10:53:33;20.40;93.80
53045;DHT22;38930;52.766;6.884;2023-05-19T10:56:02;20.40;92.60
53045;DHT22;38930;52.766;6.884;2023-05-19T11:01:13;20.60;93.30
53045;DHT22;38930;52.766;6.884;2023-05-19T11:03:58;20.40;92.90
53045;DHT22;38930;52.766;6.884;2023-05-19T11:06:32;20.50;91.80
53045;DHT22;38930;52.766;6.884;2023-05-19T11:09:12;20.70;92.30
53045;DHT22;38930;52.766;6.884;2023-05-19T11:11:46;20.50;92.10
53045;DHT22;38930;52.766;6.884;2023-05-19T11:14:17;20.40;93.10
53045;DHT22;38930;52.766;6.884;2023-05-19T11:16:52;20.20;92.50
53045;DHT22;38930;52.766;6.884;2023-05-19T11:21:54;20.40;92.60
53045;DHT22;38930;52.766;6.884;2023-05-19T11:24:42;20.50;92.30
53045;DHT22;38930;52.766;6.884;2023-05-19T11:27:27;20.50;92.20
53045;DHT22;38930;52.766;6.884;2023-05-19T11:29:56;20.40;91.20
53045;DHT22;38930;52.766;6.884;2023-05-19T11:32:31;20.50;91.80
53045;DHT22;38930;52.766;6.884;2023-05-19T11:35:03;20.40;92.70
53045;DHT22;38930;52.766;6.884;2023-05-19T11:37:33;20.50;92.50
53045;DHT22;38930;52.766;6.884;2023-05-19T11:40:03;20.50;91.90
53045;DHT22;38930;52.766;6.884;2023-05-19T11:42:35;20.50;90.70
53045;DHT22;38930;52.766;6.884;2023-05-19T11:45:01;20.60;91.60
53045;DHT22;38930;52.766;6.884;2023-05-19T11:47:27;20.50;92.30
53045;DHT22;38930;52.766;6.884;2023-05-19T11:49:55;20.50;92.90
53045;DHT22;38930;52.766;6.884;2023-05-19T11:52:25;20.60;93.00
53045;DHT22;38930;52.766;6.884;2023-05-19T11:54:51;20.50;92.60
53045;DHT22;38930;52.766;6.884;2023-05-19T11:57:18;20.50;92.40
53045;DHT22;38930;52.766;6.884;2023-05-19T11:59:44;20.50;92.50
53045;DHT22;38930;52.766;6.884;2023-05-19T12:04:40;20.70;90.30
53045;DHT22;38930;52.766;6.884;2023-05-19T12:07:06;20.70;91.60
53045;DHT22;38930;52.766;6.884;2023-05-19T12:09:31;20.80;91.40
53045;DHT22;38930;52.766;6.884;2023-05-19T12:11:57;20.70;91.60
53045;DHT22;38930;52.766;6.884;2023-05-19T12:14:25;20.60;92.10
53045;DHT22;38930;52.766;6.884;2023-05-19T12:16:50;20.40;91.70
53045;DHT22;38930;52.766;6.884;2023-05-19T12:19:16;20.30;92.40
53045;DHT22;38930;52.766;6.884;2023-05-19T12:21:42;20.40;92.60
53045;DHT22;38930;52.766;6.884;2023-05-19T12:24:08;20.50;92.80
53045;DHT22;38930;52.766;6.884;2023-05-19T12:26:34;20.50;92.60
53045;DHT22;38930;52.766;6.884;2023-05-19T12:29:03;20.50;92.20
53045;DHT22;38930;52.766;6.884;2023-05-19T12:31:29;20.40;91.80
53045;DHT22;38930;52.766;6.884;2023-05-19T12:33:55;20.60;91.20
53045;DHT22;38930;52.766;6.884;2023-05-19T12:36:23;20.80;91.60
53045;DHT22;38930;52.766;6.884;2023-05-19T12:38:53;21.20;91.50
53045;DHT22;38930;52.766;6.884;2023-05-19T12:41:19;21.30;91.50
53045;DHT22;38930;52.766;6.884;2023-05-19T12:43:44;21.50;90.30
53045;DHT22;38930;52.766;6.884;2023-05-19T12:46:11;21.70;90.10
53045;DHT22;38930;52.766;6.884;2023-05-19T12:48:41;21.90;91.10
53045;DHT22;38930;52.766;6.884;2023-05-19T12:51:07;21.70;90.80
53045;DHT22;38930;52.766;6.884;2023-05-19T12:53:32;21.40;90.40
53045;DHT22;38930;52.766;6.884;2023-05-19T12:55:59;21.10;91.00
53045;DHT22;38930;52.766;6.884;2023-05-19T12:58:24;20.90;91.50
53045;DHT22;38930;52.766;6.884;2023-05-19T13:00:57;20.80;91.50
53045;DHT22;38930;52.766;6.884;2023-05-19T13:03:22;21.00;91.00
53045;DHT22;38930;52.766;6.884;2023-05-19T13:05:50;21.10;91.60
53045;DHT22;38930;52.766;6.884;2023-05-19T13:08:17;21.40;92.00
53045;DHT22;38930;52.766;6.884;2023-05-19T13:10:45;21.60;91.60
53045;DHT22;38930;52.766;6.884;2023-05-19T13:13:11;21.40;90.30
53045;DHT22;38930;52.766;6.884;2023-05-19T13:15:40;21.50;90.30
53045;DHT22;38930;52.766;6.884;2023-05-19T13:18:07;21.60;91.20
53045;DHT22;38930;52.766;6.884;2023-05-19T13:20:33;21.70;90.80
53045;DHT22;38930;52.766;6.884;2023-05-19T13:22:59;21.50;90.70
53045;DHT22;38930;52.766;6.884;2023-05-19T13:25:26;21.30;90.40
53045;DHT22;38930;52.766;6.884;2023-05-19T13:27:52;21.10;88.70
53045;DHT22;38930;52.766;6.884;2023-05-19T13:30:19;21.20;90.30
53045;DHT22;38930;52.766;6.884;2023-05-19T13:32:45;21.30;90.10
53045;DHT22;38930;52.766;6.884;2023-05-19T13:35:12;21.20;89.40
53045;DHT22;38930;52.766;6.884;2023-05-19T13:37:37;21.40;90.00
53045;DHT22;38930;52.766;6.884;2023-05-19T13:40:04;21.50;89.00
53045;DHT22;38930;52.766;6.884;2023-05-19T13:42:33;21.70;89.00
53045;DHT22;38930;52.766;6.884;2023-05-19T13:44:59;21.70;90.10
53045;DHT22;38930;52.766;6.884;2023-05-19T13:47:25;21.60;87.30
53045;DHT22;38930;52.766;6.884;2023-05-19T13:49:51;21.80;90.10
53045;DHT22;38930;52.766;6.884;2023-05-19T13:52:19;21.90;90.40
53045;DHT22;38930;52.766;6.884;2023-05-19T13:54:45;21.90;88.00
53045;DHT22;38930;52.766;6.884;2023-05-19T13:57:10;21.80;88.50
53045;DHT22;38930;52.766;6.884;2023-05-19T13:59:36;21.30;89.90
53045;DHT22;38930;52.766;6.884;2023-05-19T14:02:02;21.10;89.20
53045;DHT22;38930;52.766;6.884;2023-05-19T14:04:29;20.90;90.00
53045;DHT22;38930;52.766;6.884;2023-05-19T14:06:54;20.90;90.40
53045;DHT22;38930;52.766;6.884;2023-05-19T14:09:20;21.00;89.60
53045;DHT22;38930;52.766;6.884;2023-05-19T14:11:46;21.00;89.70
53045;DHT22;38930;52.766;6.884;2023-05-19T14:14:12;20.80;89.90
53045;DHT22;38930;52.766;6.884;2023-05-19T14:16:40;20.80;90.30
53045;DHT22;38930;52.766;6.884;2023-05-19T14:19:06;21.00;90.00
53045;DHT22;38930;52.766;6.884;2023-05-19T14:21:32;21.30;90.70
53045;DHT22;38930;52.766;6.884;2023-05-19T14:23:58;21.40;90.10
53045;DHT22;38930;52.766;6.884;2023-05-19T14:26:24;21.30;89.20
53045;DHT22;38930;52.766;6.884;2023-05-19T14:28:50;21.50;90.80
53045;DHT22;38930;52.766;6.884;2023-05-19T14:31:16;21.70;89.00
53045;DHT22;38930;52.766;6.884;2023-05-19T14:33:42;21.80;86.80
53045;DHT22;38930;52.766;6.884;2023-05-19T14:36:08;21.90;89.10
53045;DHT22;38930;52.766;6.884;2023-05-19T14:38:34;22.00;88.00
53045;DHT22;38930;52.766;6.884;2023-05-19T14:41:00;22.00;85.90
53045;DHT22;38930;52.766;6.884;2023-05-19T14:43:25;22.00;86.70
53045;DHT22;38930;52.766;6.884;2023-05-19T14:45:51;22.00;88.60
53045;DHT22;38930;52.766;6.884;2023-05-19T14:48:17;22.00;85.60
53045;DHT22;38930;52.766;6.884;2023-05-19T14:50:43;22.10;89.00
53045;DHT22;38930;52.766;6.884;2023-05-19T14:53:09;22.20;86.40
53045;DHT22;38930;52.766;6.884;2023-05-19T14:55:35;22.10;85.60
53045;DHT22;38930;52.766;6.884;2023-05-19T14:58:00;21.90;88.30
53045;DHT22;38930;52.766;6.884;2023-05-19T15:00:26;21.70;85.40
53045;DHT22;38930;52.766;6.884;2023-05-19T15:02:52;21.40;87.70
53045;DHT22;38930;52.766;6.884;2023-05-19T15:05:18;21.10;88.50
53045;DHT22;38930;52.766;6.884;2023-05-19T15:07:44;20.70;87.70
53045;DHT22;38930;52.766;6.884;2023-05-19T15:10:10;20.70;88.90
53045;DHT22;38930;52.766;6.884;2023-05-19T15:12:35;20.80;86.10
53045;DHT22;38930;52.766;6.884;2023-05-19T15:15:01;20.90;87.40
53045;DHT22;38930;52.766;6.884;2023-05-19T15:17:27;20.90;86.70
53045;DHT22;38930;52.766;6.884;2023-05-19T15:19:52;21.00;87.00
53045;DHT22;38930;52.766;6.884;2023-05-19T15:22:18;21.00;83.80
53045;DHT22;38930;52.766;6.884;2023-05-19T15:24:43;21.20;85.10
53045;DHT22;38930;52.766;6.884;2023-05-19T15:27:09;21.30;86.50
53045;DHT22;38930;52.766;6.884;2023-05-19T15:29:34;21.30;87.20
53045;DHT22;38930;52.766;6.884;2023-05-19T15:32:00;21.30;88.40
53045;DHT22;38930;52.766;6.884;2023-05-19T15:34:26;21.10;87.70
53045;DHT22;38930;52.766;6.884;2023-05-19T15:36:52;20.90;87.30
53045;DHT22;38930;52.766;6.884;2023-05-19T15:39:17;20.70;87.40
53045;DHT22;38930;52.766;6.884;2023-05-19T15:41:43;20.60;88.70
53045;DHT22;38930;52.766;6.884;2023-05-19T15:44:09;20.60;89.80
53045;DHT22;38930;52.766;6.884;2023-05-19T15:46:34;20.50;89.60
53045;DHT22;38930;52.766;6.884;2023-05-19T15:49:00;20.70;86.50
53045;DHT22;38930;52.766;6.884;2023-05-19T15:51:26;20.80;87.60
53045;DHT22;38930;52.766;6.884;2023-05-19T15:53:52;21.00;87.60
53045;DHT22;38930;52.766;6.884;2023-05-19T15:56:17;21.20;86.40
53045;DHT22;38930;52.766;6.884;2023-05-19T15:58:44;21.30;87.30
53045;DHT22;38930;52.766;6.884;2023-05-19T16:01:10;21.20;86.20
53045;DHT22;38930;52.766;6.884;2023-05-19T16:03:36;21.10;87.10
53045;DHT22;38930;52.766;6.884;2023-05-19T16:06:02;20.90;86.20
53045;DHT22;38930;52.766;6.884;2023-05-19T16:08:27;20.70;87.60